Time;durP1;ratioP1;P1;durP2;ratioP2;P2;SDS_P1;SDS_P2;PMS_P1;PMS_P2;Temp;Humidity;BMP_temperature;BMP_pressure;BME280_temperature;BME280_humidity;BME280_pressure;Samples;Min_cycle;Max_cycle;Signal;HPM_P1;HPM_P2
2021/05/06 00:32:02;;;;;;;2.17;0.98;;;;;;;12.67;47.62;99492.66;4459299;32;33691;-84
2021/05/06 00:34:29;;;;;;;2.70;1.42;;;;;;;12.74;47.42;99490.84;4457108;32;35471;-85
2021/05/06 00:36:57;;;;;;;1.50;0.80;;;;;;;12.85;46.83;99497.66;4457165;32;34028;-84
2021/05/06 00:40:12;;;;;;;1.50;0.80;;;;;;;12.74;47.04;99507.34;4456997;32;33469;-84
2021/05/06 00:46:11;;;;;;;2.60;1.20;;;;;;;12.65;46.58;99515.31;4458611;32;35883;-84
2021/05/06 01:06:07;;;;;;;1.00;0.70;;;;;;;12.49;46.10;99545.06;4456778;32;34432;-84
2021/05/06 01:08:47;;;;;;;2.62;0.88;;;;;;;12.68;46.98;99551.81;4444864;32;34018;-84
2021/05/06 01:14:01;;;;;;;2.28;0.90;;;;;;;12.88;47.79;99559.37;4457964;32;35162;-84
2021/05/06 01:16:29;;;;;;;1.40;0.90;;;;;;;12.81;48.65;99540.31;4443949;32;34839;-84
2021/05/06 01:18:57;;;;;;;3.05;1.02;;;;;;;13.03;47.98;99548.72;4444168;32;34273;-84
2021/05/06 01:21:24;;;;;;;2.22;1.30;;;;;;;13.00;48.59;99548.78;4470426;32;33421;-85
2021/05/06 01:23:53;;;;;;;2.58;1.45;;;;;;;12.92;48.82;99550.63;4456803;32;34091;-84
2021/05/06 01:26:33;;;;;;;1.83;1.10;;;;;;;13.04;48.80;99547.84;4444057;32;35323;-84
2021/05/06 01:29:06;;;;;;;2.55;1.27;;;;;;;13.08;49.13;99552.16;4458097;32;34845;-84
2021/05/06 01:31:37;;;;;;;2.00;1.42;;;;;;;13.09;49.43;99553.03;4456853;32;33840;-84
2021/05/06 01:34:22;;;;;;;3.10;1.30;;;;;;;12.74;50.50;99562.16;4470632;32;34615;-84
2021/05/06 01:37:02;;;;;;;3.62;1.62;;;;;;;12.68;51.30;99562.25;4458795;32;34273;-85
2021/05/06 01:42:23;;;;;;;2.37;1.67;;;;;;;13.01;51.37;99566.16;4458873;32;33268;-84
2021/05/06 01:58:51;;;;;;;3.97;2.00;;;;;;;12.80;52.20;99601.22;4445755;32;33880;-85
2021/05/06 02:01:18;;;;;;;3.72;1.52;;;;;;;12.79;52.41;99607.31;4443119;32;33616;-84
2021/05/06 02:03:45;;;;;;;5.62;1.90;;;;;;;12.95;51.77;99612.37;4456345;32;33437;-84
2021/05/06 02:06:14;;;;;;;3.58;1.98;;;;;;;12.61;52.90;99620.59;4456447;32;33471;-85
2021/05/06 02:08:41;;;;;;;4.90;2.25;;;;;;;12.88;52.41;99612.41;4456226;32;34424;-84
2021/05/06 02:11:09;;;;;;;5.50;1.87;;;;;;;12.94;51.30;99606.28;4443296;32;34214;-85
2021/05/06 02:13:37;;;;;;;2.90;1.55;;;;;;;12.76;52.03;99616.94;4443628;32;33266;-85
2021/05/06 02:16:14;;;;;;;3.80;1.95;;;;;;;12.80;52.12;99608.19;4430412;32;34597;-85
2021/05/06 02:18:44;;;;;;;5.20;2.00;;;;;;;12.86;51.58;99602.88;4457216;32;35292;-84
2021/05/06 02:21:16;;;;;;;3.78;1.98;;;;;;;12.74;51.48;99598.69;4455856;32;35158;-84
2021/05/06 02:23:43;;;;;;;3.83;1.50;;;;;;;12.76;51.08;99602.16;4443577;32;33021;-85
2021/05/06 02:26:11;;;;;;;3.42;1.52;;;;;;;12.71;51.10;99600.47;4445106;32;34569;-85
2021/05/06 02:28:38;;;;;;;3.55;1.52;;;;;;;12.76;50.39;99602.16;4445024;32;33967;-84
2021/05/06 02:31:05;;;;;;;3.60;1.50;;;;;;;12.74;50.05;99596.06;4457786;32;34670;-85
2021/05/06 02:33:33;;;;;;;2.25;1.40;;;;;;;12.61;48.17;99599.72;4457779;32;33188;-84
2021/05/06 02:36:00;;;;;;;1.60;1.00;;;;;;;12.61;49.12;99607.56;4457721;32;34705;-85
2021/05/06 02:38:27;;;;;;;2.47;1.15;;;;;;;12.28;49.17;99605.31;4457736;32;34486;-85
2021/05/06 02:40:54;;;;;;;1.73;1.30;;;;;;;12.36;49.45;99590.41;4444908;32;34297;-85
2021/05/06 02:43:22;;;;;;;2.17;1.23;;;;;;;12.22;47.85;99593.19;4471665;32;34371;-85
2021/05/06 02:45:49;;;;;;;2.25;1.40;;;;;;;12.21;48.54;99607.13;4457847;32;35117;-84
2021/05/06 02:48:16;;;;;;;4.57;1.37;;;;;;;12.08;48.39;99602.00;4444906;32;34372;-84
2021/05/06 02:50:48;;;;;;;3.05;1.17;;;;;;;12.16;48.75;99601.09;4457718;32;34041;-85
2021/05/06 02:53:19;;;;;;;3.12;1.10;;;;;;;12.15;48.58;99594.12;4445469;32;34655;-85
2021/05/06 03:04:00;;;;;;;2.50;1.25;;;;;;;12.45;48.18;99608.59;4471698;32;33599;-84
2021/05/06 03:06:31;;;;;;;1.85;1.20;;;;;;;12.36;48.19;99613.91;4445783;32;34489;-84
2021/05/06 03:09:53;;;;;;;3.08;1.45;;;;;;;12.50;47.34;99612.03;4457659;32;34444;-85
2021/05/06 03:12:04;;;;;;;1.87;1.23;;;;;;;12.58;48.46;99625.84;4454120;32;33821;-84
2021/05/06 03:15:00;;;;;;;3.62;1.30;;;;;;;12.73;48.46;99638.72;4446300;32;33920;-84
2021/05/06 03:23:01;;;;;;;4.05;1.20;;;;;;;12.69;47.68;99649.22;4471690;32;34057;-84
2021/05/06 03:25:30;;;;;;;3.08;1.15;;;;;;;12.54;47.75;99658.06;4444526;32;32773;-84
2021/05/06 04:03:26;;;;;;;1.12;0.80;;;;;;;11.95;46.72;99736.81;4459165;32;35819;-84
2021/05/06 04:36:18;;;;;;;1.98;0.98;;;;;;;12.64;46.97;99769.28;4459356;32;34464;-84
2021/05/06 04:38:45;;;;;;;;;;;;;;;12.59;47.37;99767.59;4444465;32;32732;-84
2021/05/06 04:41:31;;;;;;;1.67;0.98;;;;;;;12.69;47.44;99772.69;4471149;32;32564;-84
2021/05/06 04:45:22;;;;;;;1.77;1.12;;;;;;;12.96;47.03;99766.34;4445667;32;34129;-84
2021/05/06 04:55:26;;;;;;;3.17;1.67;;;;;;;12.54;47.19;99761.53;4459100;32;34595;-85
2021/05/06 05:03:31;;;;;;;1.98;1.17;;;;;;;12.69;46.61;99762.25;4458907;32;33303;-84
2021/05/06 05:05:57;;;;;;;2.03;1.10;;;;;;;12.66;47.01;99762.31;4470984;32;32756;-84
2021/05/06 05:08:26;;;;;;;3.30;1.10;;;;;;;12.48;47.75;99764.22;4444260;32;35228;-84
2021/05/06 05:24:29;;;;;;;3.50;0.77;;;;;;;13.06;45.56;99778.47;4471040;32;33372;-85
2021/05/06 05:26:57;;;;;;;3.60;1.02;;;;;;;13.04;45.36;99776.72;4444811;32;33399;-86
2021/05/06 05:29:24;;;;;;;4.10;1.02;;;;;;;13.09;45.63;99773.22;4446072;32;34441;-85
2021/05/06 05:31:51;;;;;;;2.72;1.15;;;;;;;13.04;45.30;99787.16;4456605;32;33286;-85
2021/05/06 05:34:27;;;;;;;3.47;1.12;;;;;;;13.07;45.42;99789.78;4447389;32;33456;-84
2021/05/06 05:36:56;;;;;;;2.75;1.15;;;;;;;12.97;44.98;99788.09;4447158;32;34626;-84
2021/05/06 05:55:29;;;;;;;1.85;0.90;;;;;;;12.78;44.68;99792.66;4467349;32;33797;-84
2021/05/06 05:57:56;;;;;;;3.47;1.48;;;;;;;12.81;44.92;99792.63;4449518;32;33831;-85
2021/05/06 06:00:23;;;;;;;2.83;0.95;;;;;;;12.88;44.86;99795.13;4455152;32;34483;-85
2021/05/06 06:02:53;;;;;;;1.62;1.10;;;;;;;12.90;45.28;99809.06;4456552;32;34819;-84
2021/05/06 06:05:21;;;;;;;3.87;1.15;;;;;;;12.95;43.89;99816.84;4443449;32;33720;-84
2021/05/06 06:07:49;;;;;;;1.37;1.02;;;;;;;13.06;44.28;99808.94;4470292;32;34690;-84
2021/05/06 06:10:16;;;;;;;2.50;1.20;;;;;;;13.18;44.91;99811.41;4456069;32;34666;-83
2021/05/06 06:12:44;;;;;;;1.85;1.05;;;;;;;12.83;44.30;99807.41;4469931;32;34829;-85
2021/05/06 06:15:19;;;;;;;2.15;1.02;;;;;;;13.03;53.93;99814.12;4455869;32;33574;-84
2021/05/06 06:17:48;;;;;;;2.95;1.00;;;;;;;13.16;44.67;99814.06;4470000;32;33805;-84
2021/05/06 06:20:15;;;;;;;3.00;1.25;;;;;;;13.06;44.04;99814.16;4443038;32;34506;-84
2021/05/06 06:22:43;;;;;;;5.22;1.10;;;;;;;12.97;44.03;99814.22;4443021;32;33279;-84
2021/05/06 06:25:11;;;;;;;2.42;1.20;;;;;;;13.22;44.34;99815.72;4443241;32;33358;-83
2021/05/06 06:27:38;;;;;;;3.97;1.45;;;;;;;13.34;44.69;99818.19;4455992;32;33886;-84
2021/05/06 06:30:10;;;;;;;2.12;1.00;;;;;;;13.23;44.54;99807.00;4443124;32;34410;-83
2021/05/06 06:32:38;;;;;;;3.20;1.00;;;;;;;13.42;43.20;99808.53;4443335;32;35190;-84
2021/05/06 06:35:05;;;;;;;7.03;1.02;;;;;;;13.41;43.38;99805.06;4455842;32;33577;-84
2021/05/06 06:37:32;;;;;;;1.98;1.35;;;;;;;13.26;43.89;99807.88;4442931;32;33301;-83
2021/05/06 06:40:00;;;;;;;3.08;1.23;;;;;;;13.09;44.26;99808.91;4443038;32;34424;-84
2021/05/06 06:42:27;;;;;;;2.97;1.30;;;;;;;13.22;42.95;99805.28;4469638;32;34021;-84
2021/05/06 06:44:55;;;;;;;1.30;1.08;;;;;;;13.40;43.40;99805.09;4455459;32;34122;-84
2021/05/06 06:47:22;;;;;;;5.47;1.35;;;;;;;13.59;43.22;99801.38;4455539;32;34158;-82
2021/05/06 06:49:50;;;;;;;1.40;1.05;;;;;;;13.73;43.77;99798.56;4453210;32;34422;-83
2021/05/06 06:52:18;;;;;;;2.85;1.37;;;;;;;13.81;41.73;99788.91;4464470;32;33986;-83
2021/05/06 06:54:46;;;;;;;3.60;1.25;;;;;;;13.72;43.13;99797.72;4451010;32;32645;-83
2021/05/06 06:57:14;;;;;;;3.12;0.88;;;;;;;13.85;44.06;99801.91;4463386;32;33796;-84
2021/05/06 06:59:43;;;;;;;2.28;0.80;;;;;;;13.74;40.50;99793.31;4437547;32;34629;-84
2021/05/06 07:02:12;;;;;;;1.23;0.80;;;;;;;13.47;40.57;99793.69;4439616;32;34395;-84
2021/05/06 07:04:41;;;;;;;1.08;0.70;;;;;;;13.50;40.50;99793.66;4453726;32;32241;-85
2021/05/06 07:07:08;;;;;;;3.22;1.40;;;;;;;13.69;38.99;99792.53;4454962;32;34049;-84
2021/05/06 07:09:35;;;;;;;3.17;0.80;;;;;;;13.20;40.89;99799.22;4455121;32;34515;-84
2021/05/06 07:12:03;;;;;;;4.18;0.95;;;;;;;13.57;41.37;99803.16;4456499;32;35280;-85
2021/05/06 07:14:35;;;;;;;2.30;0.68;;;;;;;13.58;40.37;99800.50;4457215;32;34117;-85
2021/05/06 07:17:11;;;;;;;2.22;1.17;;;;;;;13.66;40.65;99802.16;4459156;32;34116;-85
2021/05/06 07:19:38;;;;;;;4.62;1.00;;;;;;;13.69;39.94;99800.38;4468449;32;35870;-84
2021/05/06 07:22:06;;;;;;;3.47;0.95;;;;;;;13.48;39.06;99792.78;4458854;32;34547;-84
2021/05/06 07:24:36;;;;;;;2.72;1.08;;;;;;;13.64;40.01;99791.72;4464335;32;33318;-84
2021/05/06 07:27:05;;;;;;;2.50;0.82;;;;;;;13.73;40.09;99799.44;4429255;32;33321;-84
2021/05/06 07:29:34;;;;;;;5.32;0.90;;;;;;;13.78;39.73;99809.84;4458715;32;33980;-85
2021/05/06 07:32:03;;;;;;;3.20;1.08;;;;;;;13.61;39.77;99822.25;4459921;32;34849;-84
2021/05/06 07:34:33;;;;;;;2.40;0.90;;;;;;;13.69;39.12;99813.47;4452032;32;33600;-84
2021/05/06 07:37:01;;;;;;;2.45;0.98;;;;;;;14.00;39.85;99806.06;4442098;32;34627;-85
2021/05/06 07:39:32;;;;;;;2.85;1.52;;;;;;;14.01;39.74;99800.81;4456808;32;34743;-85
2021/05/06 07:42:02;;;;;;;4.85;1.40;;;;;;;14.05;40.93;99799.88;4441446;32;33340;-84
2021/05/06 07:44:32;;;;;;;2.03;1.08;;;;;;;14.12;43.69;99804.13;4444585;32;32462;-85
2021/05/06 07:47:11;;;;;;;4.37;1.58;;;;;;;13.76;40.96;99809.87;4462419;32;33752;-85
2021/05/06 07:49:45;;;;;;;2.90;1.27;;;;;;;14.03;40.43;99806.00;4470581;32;34470;-84
2021/05/06 07:52:18;;;;;;;2.53;1.27;;;;;;;14.20;40.21;99812.72;4444693;32;33506;-84
2021/05/06 07:54:55;;;;;;;2.92;1.45;;;;;;;14.39;41.03;99812.47;4468771;32;33678;-84
2021/05/06 07:57:23;;;;;;;3.35;1.30;;;;;;;14.36;39.22;99809.94;4471976;32;33811;-85
2021/05/06 07:59:51;;;;;;;3.78;1.45;;;;;;;13.88;40.51;99820.16;4482657;32;34648;-84
2021/05/06 08:02:19;;;;;;;3.25;1.25;;;;;;;14.20;40.18;99812.72;4457292;32;34988;-85
2021/05/06 08:04:47;;;;;;;2.90;1.52;;;;;;;14.36;39.81;99823.03;4460472;32;33373;-86
2021/05/06 08:07:14;;;;;;;5.53;1.50;;;;;;;14.42;39.67;99809.81;4459317;32;33663;-85
2021/05/06 08:09:43;;;;;;;4.65;1.50;;;;;;;14.28;40.56;99815.25;4451853;32;33949;-84
2021/05/06 08:12:13;;;;;;;3.67;1.70;;;;;;;14.41;40.12;99821.16;4472048;32;35279;-85
2021/05/06 08:14:41;;;;;;;6.07;1.77;;;;;;;14.50;39.62;99818.44;4437664;32;33521;-84
2021/05/06 08:17:08;;;;;;;4.97;1.87;;;;;;;14.38;40.34;99826.47;4482988;32;33873;-85
2021/05/06 08:19:40;;;;;;;3.03;1.33;;;;;;;14.24;40.43;99827.50;4468091;32;34225;-84
2021/05/06 08:22:08;;;;;;;2.97;1.27;;;;;;;14.02;40.27;99817.37;4446661;32;34228;-84
2021/05/06 08:24:36;;;;;;;3.12;1.50;;;;;;;14.05;40.24;99820.78;4455389;32;33582;-84
2021/05/06 08:27:13;;;;;;;4.12;1.60;;;;;;;14.25;40.77;99823.13;4482431;32;35312;-84
2021/05/06 08:29:45;;;;;;;2.67;1.80;;;;;;;14.35;40.68;99810.81;4440938;32;33877;-85
2021/05/06 08:32:35;;;;;;;1.73;1.25;;;;;;;14.65;40.58;99812.94;4437786;32;34262;-85
2021/05/06 08:35:05;;;;;;;1.50;1.30;;;;;;;14.62;40.50;99807.78;4471945;32;33767;-84
2021/05/06 08:37:32;;;;;;;2.12;1.17;;;;;;;14.89;39.72;99808.16;4463355;32;34175;-89
2021/05/06 08:40:01;;;;;;;2.83;2.17;;;;;;;14.81;39.64;99807.41;4461343;32;34151;-84
2021/05/06 08:42:29;;;;;;;2.33;1.30;;;;;;;14.81;39.26;99802.19;4471690;32;33999;-85
2021/05/06 08:45:01;;;;;;;2.75;1.40;;;;;;;15.07;41.11;99808.72;4458771;32;33671;-85
2021/05/06 08:48:17;;;;;;;4.03;1.27;;;;;;;15.30;40.77;99807.41;4469869;32;34730;-86
2021/05/06 08:50:52;;;;;;;2.22;1.17;;;;;;;15.63;39.66;99799.78;4466325;32;35610;-85
2021/05/06 08:53:44;;;;;;;3.15;1.02;;;;;;;15.61;39.67;99804.22;4456276;32;33948;-85
2021/05/06 08:56:17;;;;;;;1.75;1.02;;;;;;;15.75;38.75;99805.66;4449687;32;33295;-85
2021/05/06 08:58:45;;;;;;;2.50;1.12;;;;;;;15.83;35.38;99802.87;4441733;32;35161;-85
2021/05/06 09:01:12;;;;;;;1.25;0.80;;;;;;;15.67;36.66;99801.44;4451907;32;33897;-85
2021/05/06 09:03:39;;;;;;;3.83;1.08;;;;;;;15.78;35.82;99797.72;4455904;32;34230;-85
2021/05/06 09:06:31;;;;;;;1.33;1.08;;;;;;;15.73;36.05;99798.72;4457729;32;33908;-86
2021/05/06 09:09:04;;;;;;;2.42;1.00;;;;;;;15.54;36.60;99801.72;4449108;32;34434;-86
2021/05/06 09:11:34;;;;;;;3.80;1.20;;;;;;;15.65;37.81;99808.47;4449908;32;34022;-85
2021/05/06 09:14:04;;;;;;;3.53;1.10;;;;;;;15.59;36.82;99805.09;4440750;32;34663;-85
2021/05/06 09:16:36;;;;;;;1.52;0.70;;;;;;;15.81;37.97;99812.53;4463301;32;34120;-85
2021/05/06 09:19:10;;;;;;;2.97;1.05;;;;;;;15.77;36.77;99803.00;4479687;32;33746;-85
2021/05/06 09:21:42;;;;;;;1.52;1.02;;;;;;;15.96;36.53;99805.19;4469025;32;34329;-86
2021/05/06 09:24:35;;;;;;;2.47;1.10;;;;;;;16.12;37.21;99805.69;4462582;32;33937;-85
2021/05/06 09:27:05;;;;;;;3.67;1.40;;;;;;;16.63;37.32;99799.28;4450471;32;34319;-82
2021/05/06 09:29:37;;;;;;;1.17;1.08;;;;;;;16.66;37.26;99812.31;4456347;32;32737;-81
2021/05/06 09:32:27;;;;;;;2.55;1.10;;;;;;;16.69;37.08;99814.88;4464771;32;34374;-82
2021/05/06 09:34:56;;;;;;;2.37;1.10;;;;;;;16.92;37.58;99815.16;4455461;32;35242;-82
2021/05/06 09:37:25;;;;;;;2.00;1.05;;;;;;;16.95;37.76;99816.84;4462233;32;33355;-82
2021/05/06 09:40:01;;;;;;;1.92;0.90;;;;;;;17.50;36.16;99805.72;4470164;32;33990;-83
2021/05/06 09:42:48;;;;;;;2.58;0.93;;;;;;;17.69;35.55;99812.19;4463078;32;34184;-82
2021/05/06 09:45:30;;;;;;;3.00;0.90;;;;;;;17.51;33.61;99823.22;4448284;32;34887;-82
2021/05/06 09:48:08;;;;;;;3.97;1.35;;;;;;;17.34;34.56;99825.44;4476212;32;33384;-82
2021/05/06 09:50:43;;;;;;;1.60;0.80;;;;;;;17.47;34.54;99813.72;4458636;32;34679;-83
2021/05/06 09:53:18;;;;;;;5.37;0.80;;;;;;;17.78;33.15;99809.31;4467801;32;35724;-84
2021/05/06 09:55:56;;;;;;;5.10;1.20;;;;;;;17.59;33.39;99810.72;4467994;32;33931;-83
2021/05/06 09:58:33;;;;;;;1.58;1.00;;;;;;;17.48;34.69;99818.03;4477249;32;33289;-82
2021/05/06 10:01:11;;;;;;;3.83;0.82;;;;;;;17.62;35.30;99818.53;4443673;32;34695;-83
2021/05/06 10:03:38;;;;;;;2.83;1.00;;;;;;;17.98;34.39;99819.25;4448115;32;34241;-83
2021/05/06 10:06:18;;;;;;;1.60;0.95;;;;;;;18.04;33.97;99827.81;4474805;32;33848;-82
2021/05/06 10:08:48;;;;;;;1.02;0.77;;;;;;;17.79;34.47;99834.72;4441128;32;33630;-82
2021/05/06 10:11:20;;;;;;;2.15;1.08;;;;;;;17.75;34.11;99838.34;4464375;32;35101;-83
2021/05/06 10:13:49;;;;;;;3.65;1.08;;;;;;;17.52;34.45;99840.75;4460766;32;33735;-82
2021/05/06 10:16:17;;;;;;;2.10;0.90;;;;;;;17.16;34.50;99833.84;4468253;32;34218;-82
2021/05/06 10:18:45;;;;;;;1.98;1.23;;;;;;;17.02;35.12;99831.53;4463540;32;34054;-83
2021/05/06 10:21:21;;;;;;;3.92;1.60;;;;;;;16.81;35.09;99822.44;4452521;32;34296;-83
2021/05/06 10:24:01;;;;;;;3.95;1.58;;;;;;;16.62;36.84;99823.81;4458267;32;35118;-82
2021/05/06 10:26:32;;;;;;;3.62;1.40;;;;;;;16.76;37.01;99821.69;4465981;32;33532;-85
2021/05/06 10:28:59;;;;;;;2.35;1.23;;;;;;;16.96;36.59;99817.69;4460453;32;33799;-85
2021/05/06 10:31:26;;;;;;;2.30;1.40;;;;;;;17.19;35.49;99807.44;4452257;32;33888;-84
2021/05/06 10:33:54;;;;;;;5.40;1.55;;;;;;;17.23;35.54;99811.75;4459296;32;34619;-85
2021/05/06 10:36:24;;;;;;;3.40;1.30;;;;;;;17.27;34.07;99797.59;4460263;32;34252;-84
2021/05/06 10:38:51;;;;;;;1.75;1.00;;;;;;;17.31;35.24;99805.34;4443567;32;32710;-84
2021/05/06 10:41:22;;;;;;;2.85;1.27;;;;;;;17.48;34.86;99789.97;4457451;32;33835;-83
2021/05/06 10:43:53;;;;;;;2.90;1.30;;;;;;;17.77;34.41;99804.97;4457033;32;35591;-84
2021/05/06 10:46:22;;;;;;;2.20;1.15;;;;;;;17.62;34.90;99800.12;4442768;32;34126;-84
2021/05/06 10:49:02;;;;;;;1.73;1.08;;;;;;;17.82;33.54;99807.47;4445910;32;33214;-85
2021/05/06 10:51:35;;;;;;;2.65;0.85;;;;;;;18.05;33.30;99795.34;4465842;32;33302;-84
2021/05/06 10:54:25;;;;;;;3.83;1.05;;;;;;;18.00;34.14;99791.97;4459875;32;35434;-84
2021/05/06 10:56:55;;;;;;;1.67;0.80;;;;;;;18.06;33.50;99793.56;4450310;32;33401;-84
2021/05/06 10:59:27;;;;;;;3.05;1.10;;;;;;;17.28;35.18;99801.97;4444582;32;32585;-85
2021/05/06 11:01:56;;;;;;;5.53;0.98;;;;;;;17.05;36.27;99809.56;4459009;32;35146;-85
2021/05/06 11:04:42;;;;;;;2.15;0.95;;;;;;;17.57;35.39;99815.19;4443030;32;33928;-85
2021/05/06 11:07:15;;;;;;;2.53;1.00;;;;;;;17.49;35.83;99810.13;4454665;32;35335;-85
2021/05/06 11:09:44;;;;;;;2.03;1.20;;;;;;;17.58;35.59;99803.78;4432771;32;33859;-84
2021/05/06 11:12:14;;;;;;;1.62;0.95;;;;;;;17.75;34.92;99805.91;4444583;32;34565;-84
2021/05/06 11:15:00;;;;;;;1.83;0.90;;;;;;;17.90;34.23;99811.56;4449308;32;34642;-83
2021/05/06 11:17:43;;;;;;;2.65;1.20;;;;;;;17.89;35.18;99815.12;4462589;32;34871;-84
2021/05/06 11:20:10;;;;;;;2.87;1.00;;;;;;;18.02;34.68;99816.47;4455461;32;34447;-85
2021/05/06 11:23:00;;;;;;;1.33;0.90;;;;;;;17.84;35.21;99814.41;4456380;32;33715;-84
2021/05/06 11:25:29;;;;;;;3.75;1.60;;;;;;;17.77;34.66;99794.44;4453923;32;35324;-84
2021/05/06 11:27:58;;;;;;;2.20;0.77;;;;;;;18.02;35.44;99805.06;4438618;32;33362;-84
2021/05/06 11:30:55;;;;;;;4.37;1.10;;;;;;;18.09;34.21;99796.97;4454155;32;33426;-91
2021/05/06 11:33:29;;;;;;;6.60;5.18;;;;;;;18.26;33.81;99792.03;4463297;32;34232;-91
2021/05/06 11:36:14;;;;;;;5.10;3.25;;;;;;;18.46;32.71;99777.41;4439163;32;33764;-90
2021/05/06 11:39:00;;;;;;;3.55;1.10;;;;;;;18.63;32.54;99785.63;4443307;32;34341;-91
2021/05/06 11:41:33;;;;;;;0.80;0.70;;;;;;;18.76;32.84;99785.16;4443221;32;32724;-89
2021/05/06 11:44:05;;;;;;;2.12;0.98;;;;;;;19.00;33.40;99787.87;4454164;32;33268;-90
2021/05/06 11:46:39;;;;;;;4.50;1.40;;;;;;;18.42;33.58;99788.94;4445668;32;35034;-89
2021/05/06 11:49:12;;;;;;;2.97;0.88;;;;;;;18.16;33.79;99782.69;4428657;32;34543;-90
2021/05/06 11:51:47;;;;;;;2.55;1.10;;;;;;;18.25;33.44;99766.63;4467285;32;34325;-90
2021/05/06 11:54:18;;;;;;;1.98;0.93;;;;;;;18.41;33.71;99761.72;4462014;32;34067;-89
2021/05/06 11:56:54;;;;;;;4.78;1.30;;;;;;;18.73;33.60;99758.06;4439091;32;34908;-90
2021/05/06 11:59:32;;;;;;;15.25;13.88;;;;;;;18.77;35.12;99760.56;4433527;32;33386;-91
2021/05/06 12:02:07;;;;;;;8.20;4.37;;;;;;;18.95;33.72;99753.78;4446073;32;33752;-92
2021/05/06 12:04:37;;;;;;;3.17;2.00;;;;;;;18.85;34.93;99747.13;4441268;32;33279;-93
2021/05/06 12:07:18;;;;;;;1.60;1.20;;;;;;;18.92;35.30;99756.53;4439888;32;34394;-92
2021/05/06 12:09:46;;;;;;;3.12;1.52;;;;;;;18.56;35.68;99765.66;4460049;32;33972;-91
2021/05/06 12:12:23;;;;;;;3.45;2.70;;;;;;;18.84;34.42;99755.94;4449147;32;34338;-91
2021/05/06 12:14:58;;;;;;;3.33;1.48;;;;;;;18.91;33.97;99749.53;4446496;32;33391;-90
2021/05/06 12:17:25;;;;;;;2.05;1.27;;;;;;;18.81;35.71;99756.03;4433177;32;33788;-89
2021/05/06 12:19:58;;;;;;;3.55;1.60;;;;;;;18.65;35.83;99760.09;4479649;32;34373;-90
2021/05/06 12:22:27;;;;;;;5.00;1.62;;;;;;;18.66;35.29;99767.09;4435487;32;32623;-90
2021/05/06 12:24:56;;;;;;;2.33;1.20;;;;;;;18.60;35.76;99769.91;4461203;32;34563;-91
2021/05/06 12:27:26;;;;;;;3.22;2.08;;;;;;;18.83;34.75;99767.38;4465660;32;34805;-90
2021/05/06 12:29:58;;;;;;;4.03;1.27;;;;;;;18.66;35.04;99761.84;4450879;32;34327;-90
2021/05/06 12:32:27;;;;;;;1.92;1.00;;;;;;;18.55;35.22;99769.19;4457917;32;33147;-89
2021/05/06 12:34:56;;;;;;;3.92;1.20;;;;;;;18.65;35.19;99760.09;4452750;32;34602;-89
2021/05/06 12:37:25;;;;;;;7.60;1.40;;;;;;;18.67;34.97;99753.88;4450289;32;34457;-89
2021/05/06 12:39:53;;;;;;;2.65;1.37;;;;;;;18.79;35.50;99753.44;4447104;32;34177;-89
2021/05/06 12:42:32;;;;;;;2.25;1.08;;;;;;;18.61;35.14;99754.06;4451129;32;32788;-91
2021/05/06 12:45:01;;;;;;;3.78;1.48;;;;;;;19.09;33.85;99745.41;4466624;32;33821;-91
2021/05/06 12:47:43;;;;;;;4.80;1.70;;;;;;;19.21;35.61;99735.25;4453693;32;34961;-90
2021/05/06 12:50:19;;;;;;;3.47;1.52;;;;;;;19.11;35.21;99747.03;4451348;32;33913;-90
2021/05/06 12:52:49;;;;;;;1.35;0.95;;;;;;;19.49;33.87;99741.25;4452117;32;33436;-90
2021/05/06 12:55:19;;;;;;;3.08;1.70;;;;;;;19.59;33.01;99737.38;4451471;32;33968;-90
2021/05/06 12:58:04;;;;;;;1.95;1.20;;;;;;;19.63;32.55;99727.59;4467013;32;34253;-89
2021/05/06 13:00:37;;;;;;;3.55;1.20;;;;;;;19.47;33.37;99731.69;4451561;32;35286;-90
2021/05/06 13:03:06;;;;;;;4.20;1.52;;;;;;;19.54;33.82;99730.53;4456366;32;33154;-92
2021/05/06 13:05:42;;;;;;;2.92;1.73;;;;;;;19.62;33.21;99732.91;4441455;32;34506;-90
2021/05/06 13:08:10;;;;;;;2.67;1.25;;;;;;;19.70;32.96;99728.19;4454024;32;35187;-91
2021/05/06 13:10:42;;;;;;;4.78;1.52;;;;;;;19.62;32.71;99725.84;4457048;32;33349;-90
2021/05/06 13:13:12;;;;;;;2.40;1.10;;;;;;;19.28;33.43;99720.94;4459913;32;33748;-89
2021/05/06 13:15:51;;;;;;;2.80;1.70;;;;;;;19.41;33.53;99705.56;4444574;32;33212;-91
2021/05/06 13:18:20;;;;;;;1.98;1.15;;;;;;;19.45;34.67;99702.75;4450797;32;35503;-90
2021/05/06 13:20:48;;;;;;;3.72;1.20;;;;;;;19.50;33.08;99700.78;4447856;32;34823;-91
2021/05/06 13:23:24;;;;;;;3.05;1.10;;;;;;;19.29;34.01;99695.44;4467536;32;33294;-90
2021/05/06 13:26:05;;;;;;;3.47;1.05;;;;;;;19.57;33.99;99698.78;4427967;32;33318;-91
2021/05/06 13:28:33;;;;;;;2.65;1.70;;;;;;;19.55;32.29;99698.84;4449926;32;34163;-90
2021/05/06 13:31:09;;;;;;;2.40;1.05;;;;;;;19.43;33.59;99711.63;4450096;32;33520;-91
2021/05/06 13:33:38;;;;;;;2.33;1.45;;;;;;;19.31;32.85;99712.91;4444209;32;32858;-90
2021/05/06 13:36:28;;;;;;;2.87;1.30;;;;;;;19.20;32.78;99698.41;4437427;32;34071;-91
2021/05/06 13:39:02;;;;;;;5.72;1.85;;;;;;;18.70;32.79;99685.28;4467985;32;33829;-91
2021/05/06 13:41:56;;;;;;;2.00;1.45;;;;;;;18.53;34.00;99686.75;4444605;32;35160;-92
2021/05/06 13:44:25;;;;;;;4.03;1.67;;;;;;;18.50;34.92;99682.44;4442607;32;33402;-91
2021/05/06 13:46:54;;;;;;;1.70;1.20;;;;;;;18.67;34.24;99679.22;4457268;32;34861;-90
2021/05/06 13:49:30;;;;;;;3.92;1.37;;;;;;;18.98;32.23;99674.59;4471072;32;34348;-91
2021/05/06 13:51:59;;;;;;;3.80;1.37;;;;;;;19.04;31.58;99681.44;4472405;32;33499;-91
2021/05/06 13:54:27;;;;;;;4.22;1.37;;;;;;;19.03;32.37;99662.12;4444985;32;34392;-91
2021/05/06 13:56:55;;;;;;;3.05;1.40;;;;;;;19.27;32.67;99671.75;4449024;32;33838;-91
2021/05/06 13:59:23;;;;;;;2.05;1.00;;;;;;;19.31;32.12;99685.69;4445076;32;34868;-90
2021/05/06 14:01:55;;;;;;;3.08;1.20;;;;;;;19.17;32.14;99678.28;4455517;32;33594;-91
2021/05/06 14:04:24;;;;;;;1.85;1.00;;;;;;;19.27;32.69;99687.59;4420064;32;32356;-90
2021/05/06 14:06:54;;;;;;;1.92;0.98;;;;;;;19.41;31.88;99695.87;4445134;32;33946;-90
2021/05/06 14:09:21;;;;;;;2.00;0.98;;;;;;;19.27;32.64;99686.72;4431147;32;33858;-91
2021/05/06 14:11:50;;;;;;;3.30;1.25;;;;;;;19.19;32.38;99684.34;4444007;32;34129;-91
2021/05/06 14:14:19;;;;;;;3.20;1.12;;;;;;;18.96;32.79;99670.31;4453886;32;33284;-91
2021/05/06 14:16:46;;;;;;;1.70;1.10;;;;;;;18.99;32.64;99671.06;4447526;32;33326;-90
2021/05/06 14:19:14;;;;;;;2.20;0.90;;;;;;;19.13;32.42;99663.50;4440529;32;103527;-91
2021/05/06 14:21:47;;;;;;;4.30;1.10;;;;;;;19.37;31.62;99674.94;4439215;32;33335;-90
2021/05/06 14:24:15;;;;;;;1.70;1.00;;;;;;;19.48;30.75;99660.44;4450740;32;33442;-89
2021/05/06 14:26:45;;;;;;;2.10;0.70;;;;;;;19.25;29.59;99660.41;4451961;32;34088;-91
2021/05/06 14:29:14;;;;;;;2.35;1.00;;;;;;;19.07;29.86;99649.66;4457676;32;33775;-90
2021/05/06 14:31:42;;;;;;;1.80;0.88;;;;;;;19.27;29.89;99637.50;4438979;32;33799;-90
2021/05/06 14:34:09;;;;;;;10.85;1.77;;;;;;;19.38;29.38;99632.69;4444697;32;32948;-89
2021/05/06 14:36:37;;;;;;;3.50;0.90;;;;;;;19.51;29.92;99644.50;4444042;32;34217;-89
2021/05/06 14:39:06;;;;;;;2.80;0.98;;;;;;;19.17;29.37;99641.38;4447844;32;34656;-89
2021/05/06 14:41:33;;;;;;;3.22;0.90;;;;;;;19.40;30.21;99641.38;4432764;32;33650;-90
2021/05/06 14:44:01;;;;;;;2.37;1.10;;;;;;;19.54;30.77;99632.94;4464976;32;32978;-89
2021/05/06 14:46:29;;;;;;;1.55;0.70;;;;;;;19.27;31.10;99628.72;4448811;32;33251;-90
2021/05/06 14:48:59;;;;;;;1.37;1.10;;;;;;;19.28;31.03;99639.19;4461610;32;35283;-89
2021/05/06 14:51:26;;;;;;;1.83;0.80;;;;;;;19.31;30.94;99635.56;4460897;32;33950;-88
2021/05/06 14:53:54;;;;;;;4.55;1.25;;;;;;;19.26;30.86;99622.56;4473454;32;33612;-87
2021/05/06 14:56:21;;;;;;;3.75;1.02;;;;;;;19.42;30.34;99626.38;4473452;32;34818;-88
2021/05/06 14:58:50;;;;;;;1.58;0.88;;;;;;;19.36;31.01;99618.69;4461371;32;34241;-88
2021/05/06 15:01:17;;;;;;;2.50;1.00;;;;;;;19.35;30.11;99613.47;4460400;32;33522;-87
2021/05/06 15:03:44;;;;;;;2.03;1.17;;;;;;;19.32;30.71;99609.16;4473735;32;34242;-88
2021/05/06 15:06:12;;;;;;;4.85;1.45;;;;;;;19.25;30.36;99605.06;4487454;32;33710;-88
2021/05/06 15:08:43;;;;;;;2.83;1.33;;;;;;;19.33;28.41;99600.31;4460605;32;34507;-87
2021/05/06 15:11:11;;;;;;;3.53;1.60;;;;;;;19.32;28.27;99611.81;4458506;32;34717;-88